WB0VGI-1 Weather Reports


time (UTC)temp
F
wind
direction
speed
knots
gust
knots
rain 1hr
in
rain 24hr
in
rain mn
in
humidity
%
barometer
mb
20260901173525 81 43 0.9 2.6 0.00 0.01 0.00 62 1017.6
20260901173039 81 124 0.0 0.9 0.00 0.01 0.00 62 1017.6
20260901172523 80 41 1.7 2.6 0.00 0.01 0.00 60 1017.6
20260901172031 80 35 1.7 2.6 0.00 0.01 0.00 62 1017.6
20260901171521 79 29 1.7 3.5 0.00 0.01 0.00 63 1017.5
20260901171029 79 27 1.7 2.6 0.00 0.01 0.00 61 1017.6
20260901170518 79 35 0.0 2.6 0.00 0.01 0.00 66 1017.7
20260901170027 79 207 0.0 1.7 0.00 0.01 0.00 67 1017.8
20260901165535 78 90 0.0 1.7 0.00 0.01 0.00 67 1017.9
20260901165024 78 22 1.7 3.5 0.00 0.01 0.00 68 1017.9
20260901164552 78 205 0.9 3.5 0.00 0.01 0.00 69 1017.9
20260901164042 77 210 1.7 2.6 0.00 0.01 0.00 68 1017.9
20260901163530 77 234 1.7 2.6 0.00 0.01 0.00 68 1017.9
20260901163020 77 222 0.9 2.6 0.00 0.01 0.00 67 1017.9
20260901162528 77 242 0.9 2.6 0.00 0.01 0.00 69 1017.9
20260901162036 76 203 1.7 1.7 0.00 0.01 0.00 69 1017.9
20260901161526 76 230 1.7 2.6 0.00 0.01 0.00 69 1018.0
20260901161034 76 225 0.9 3.5 0.00 0.01 0.00 73 1017.9
20260901160524 76 180 0.0 1.7 0.00 0.01 0.00 71 1017.9
20260901160031 76 222 1.7 3.5 0.00 0.01 0.00 73 1018.0
20260901155521 75 0.0 0.0 0.00 0.01 0.00 77 1017.9
20260901155049 74 194 0.9 1.7 0.00 0.01 0.00 76 1018.0
20260901154519 74 224 2.6 3.5 0.00 0.01 0.00 78 1018.0
20260901154027 74 197 1.7 3.5 0.00 0.01 0.00 80 1018.1
20260901153535 74 238 1.7 3.5 0.00 0.01 0.00 80 1018.0
20260901153025 74 33 0.9 1.7 0.00 0.01 0.00 79 1018.0
20260901152532 73 352 1.7 3.5 0.00 0.01 0.00 80 1018.0
20260901152022 73 221 2.6 3.5 0.00 0.01 0.00 81 1018.0
20260901151530 73 349 0.9 2.6 0.00 0.01 0.00 81 1018.0
20260901151100 73 67 0.0 1.7 0.00 0.01 0.00 83 1018.0
20260901150528 72 220 0.9 3.5 0.00 0.01 0.00 83 1018.1
20260901150036 72 337 1.7 3.5 0.00 0.01 0.00 84 1018.0
20260901145526 72 49 1.7 1.7 0.00 0.01 0.00 84 1018.0
20260901145035 71 229 2.6 3.5 0.00 0.01 0.00 85 1018.0
20260901144523 71 246 1.7 2.6 0.00 0.01 0.00 85 1018.0
20260901144031 71 246 2.6 3.5 0.00 0.01 0.00 86 1018.0
20260901143521 71 279 1.7 3.5 0.00 0.01 0.00 87 1018.0
20260901143029 70 233 1.7 4.3 0.00 0.01 0.00 88 1017.9
20260901142519 70 232 2.6 4.3 0.00 0.01 0.00 88 1017.9
20260901142028 69 228 3.5 4.3 0.00 0.01 0.00 90 1017.9
20260901141540 69 232 3.5 4.3 0.00 0.01 0.00 91 1017.8
20260901141035 69 221 2.6 3.5 0.00 0.01 0.00 94 1017.9
20260901140532 68 238 3.5 4.3 0.00 0.01 0.00 95 1018.0
20260901140022 68 227 2.6 3.5 0.00 0.01 0.00 97 1018.0
20260901135530 66 214 1.7 1.7 0.00 0.01 0.00 99 1018.0
20260901135020 66 219 1.7 2.6 0.00 0.01 0.00 99 1017.9
20260901134529 66 235 1.7 2.6 0.00 0.01 0.00 99 1017.9
20260901134035 66 216 1.7 2.6 0.00 0.01 0.00 99 1017.8
20260901133525 65 194 1.7 2.6 0.00 0.01 0.00 99 1017.8
20260901133033 64 208 0.9 1.7 0.00 0.01 0.00 99 1017.8
20260901132523 64 220 1.7 2.6 0.00 0.01 0.00 99 1017.7
20260901132031 64 191 1.7 2.6 0.00 0.01 0.00 99 1017.7
20260901131522 63 190 1.7 1.7 0.00 0.01 0.00 99 1017.7
20260901131029 62 209 1.7 2.6 0.00 0.01 0.00 99 1017.7
20260901130537 62 226 2.6 2.6 0.00 0.01 0.00 99 1017.7
20260901130026 62 218 1.7 2.6 0.00 0.01 0.00 99 1017.6
20260901125600 62 229 0.9 1.7 0.00 0.01 0.00 99 1017.6
20260901125024 61 180 0.0 0.9 0.00 0.01 0.00 99 1017.5
20260901124532 61 158 0.0 1.7 0.00 0.01 0.00 99 1017.4
20260901124033 61 0.0 0.0 0.00 0.01 0.00 99 1017.3
20260901123530 61 0.0 0.0 0.00 0.01 0.00 99 1017.2
20260901123020 61 0.0 0.0 0.00 0.01 0.00 99 1017.2
20260901122548 60 0.0 0.0 0.00 0.01 0.00 99 1017.2
20260901122042 60 0.0 0.0 0.00 0.01 0.00 99 1017.2
20260901121525 60 0.0 0.0 0.00 0.01 0.00 99 1017.2
20260901121034 60 0.0 0.0 0.00 0.01 0.00 99 1017.2
20260901120544 60 0.0 0.0 0.00 0.01 0.00 99 1017.2
20260901120031 60 0.0 0.0 0.00 0.01 0.00 99 1017.2
20260901115521 60 0.0 0.0 0.00 0.01 0.00 99 1017.1
20260901115029 60 0.0 0.0 0.00 0.01 0.00 99 1017.0
20260901114519 60 0.0 0.0 0.00 0.01 0.00 99 1016.9
20260901114032 61 0.0 0.0 0.00 0.01 0.00 99 1016.9
20260901113535 61 0.0 0.0 0.00 0.01 0.00 99 1016.8
20260901113024 61 0.0 0.0 0.00 0.01 0.00 99 1016.9
20260901112533 61 0.0 0.0 0.00 0.01 0.00 99 1016.8
20260901112022 61 0.0 0.0 0.00 0.01 0.00 99 1016.8
20260901111555 61 0.0 0.0 0.00 0.01 0.00 99 1016.7
20260901111045 61 0.0 0.0 0.00 0.01 0.00 99 1016.7
20260901110549 61 0.0 0.0 0.00 0.01 0.00 99 1016.8
20260901110036 62 0.0 0.9 0.00 0.01 0.00 99 1016.8
20260901105526 62 326 0.0 1.7 0.00 0.01 0.00 99 1016.7
20260901105033 62 159 0.9 2.6 0.00 0.01 0.00 99 1016.7
20260901104524 62 164 2.6 3.5 0.00 0.01 0.00 99 1016.7
20260901104051 62 160 1.7 2.6 0.00 0.01 0.00 99 1016.7
20260901103521 62 180 0.0 2.6 0.00 0.01 0.00 99 1016.6
20260901103029 62 0.0 0.0 0.00 0.01 0.00 99 1016.6
20260901102539 62 193 0.0 1.7 0.00 0.01 0.00 99 1016.6
20260901102027 62 200 0.9 1.7 0.00 0.01 0.00 99 1016.6
20260901101535 62 172 0.9 1.7 0.00 0.01 0.00 99 1016.5
20260901101025 63 158 1.7 2.6 0.00 0.01 0.00 99 1016.4
20260901100533 62 197 1.7 2.6 0.00 0.01 0.00 99 1016.3
20260901100022 62 191 1.7 2.6 0.00 0.01 0.00 99 1016.3
20260901095530 62 191 1.7 2.6 0.00 0.01 0.00 99 1016.2
20260901095020 62 215 1.7 1.7 0.00 0.01 0.00 99 1016.2
20260901094528 62 222 1.7 2.6 0.00 0.01 0.00 99 1016.3
20260901094056 62 221 1.7 2.6 0.00 0.01 0.00 99 1016.2
20260901093528 62 219 2.6 2.6 0.00 0.01 0.00 99 1016.2
20260901093036 62 228 2.6 2.6 0.00 0.01 0.00 99 1016.2
20260901092524 62 219 1.7 2.6 0.00 0.01 0.00 99 1016.2
20260901092031 63 257 0.9 2.6 0.00 0.01 0.00 99 1016.3
20260901091521 63 333 1.7 2.6 0.00 0.01 0.00 98 1016.2
20260901091029 63 158 0.9 1.7 0.00 0.01 0.00 98 1016.0
20260901090519 63 162 0.9 1.7 0.00 0.01 0.00 98 1016.0
20260901090047 63 151 1.7 2.6 0.00 0.01 0.00 98 1016.0
20260901085540 63 154 1.7 3.5 0.00 0.01 0.00 99 1015.9
20260901085024 63 158 0.0 2.6 0.00 0.01 0.00 99 1015.9
20260901084533 63 0.0 0.0 0.00 0.01 0.00 99 1015.9
20260901084042 63 0.0 0.0 0.00 0.01 0.00 99 1015.8
20260901083610 63 0.0 0.0 0.00 0.01 0.00 98 1015.8
20260901083020 63 0.0 0.0 0.00 0.01 0.00 96 1015.8
20260901082528 63 0.0 0.0 0.00 0.01 0.00 96 1015.8
20260901082036 63 0.0 0.0 0.00 0.01 0.00 97 1015.9
20260901081525 63 0.0 0.0 0.00 0.01 0.00 98 1016.0
20260901081034 64 0.0 0.0 0.00 0.01 0.00 98 1016.0
20260901080524 64 0.0 0.0 0.00 0.01 0.00 95 1016.1
20260901080113 64 0.0 0.0 0.00 0.01 0.00 94 1016.1
20260901075521 64 0.0 0.0 0.00 0.01 0.00 95 1016.1
20260901075029 65 0.0 0.0 0.00 0.01 0.00 93 1016.1
20260901074519 65 0.0 0.0 0.00 0.01 0.00 92 1016.1
20260901074027 65 0.0 0.0 0.00 0.01 0.00 94 1016.2
20260901073534 65 0.0 0.9 0.00 0.01 0.00 93 1016.2
20260901073025 66 0.0 0.0 0.00 0.01 0.00 91 1016.3
20260901072533 66 0.0 0.0 0.00 0.01 0.00 90 1016.3
20260901072022 66 0.0 0.0 0.00 0.01 0.00 89 1016.3
20260901071535 66 0.0 0.0 0.00 0.01 0.00 89 1016.3
20260901071020 67 0.0 0.0 0.00 0.01 0.00 90 1016.4
20260901070528 67 0.0 0.0 0.00 0.01 0.00 90 1016.5
20260901070036 67 221 0.9 1.7 0.00 0.01 0.00 90 1016.6
20260901065526 67 225 1.7 2.6 0.00 0.01 0.00 90 1016.6
20260901065039 67 228 1.7 2.6 0.00 0.01 0.00 90 1016.7
20260901064524 67 225 2.6 2.6 0.00 0.01 0.00 90 1016.7
20260901064031 67 228 2.6 3.5 0.00 0.01 0.00 90 1016.7
20260901063546 67 225 2.6 2.6 0.00 0.01 0.00 90 1016.8
20260901063035 67 226 2.6 2.6 0.00 0.01 0.00 90 1016.8
20260901062519 68 230 1.7 2.6 0.00 0.01 0.00 89 1016.7
20260901062027 68 225 0.0 1.7 0.00 0.01 0.00 88 1016.6
20260901061537 68 0.0 0.0 0.00 0.01 0.00 87 1016.7
20260901061026 69 220 0.9 2.6 0.00 0.01 0.00 86 1016.6
20260901060553 69 225 2.6 2.6 0.00 0.01 0.00 86 1016.6
20260901060022 69 225 2.6 2.6 0.00 0.01 0.00 86 1016.6
20260901055530 68 230 2.6 3.5 0.00 0.01 0.00 87 1016.7
20260901055020 68 227 2.6 3.5 0.00 0.01 0.00 89 1016.7
20260901054527 67 237 2.6 3.5 0.00 0.01 0.00 90 1016.6
20260901054036 67 242 2.6 3.5 0.00 0.01 0.00 93 1016.7
20260901053546 66 234 2.6 3.5 0.00 0.01 0.00 95 1016.6
20260901053033 66 228 2.6 2.6 0.00 0.01 0.00 96 1016.6
20260901052523 66 225 0.0 1.7 0.00 0.01 0.00 94 1016.5
20260901052031 67 0.0 0.0 0.00 0.01 0.00 93 1016.4
20260901051521 67 0.0 0.0 0.00 0.01 0.00 93 1016.4
20260901051029 66 158 0.0 1.7 0.00 0.01 0.00 94 1016.4
20260901050537 66 0.0 0.0 0.00 0.01 0.00 93 1016.4
20260901050026 66 0.0 0.0 0.00 0.01 0.00 93 1016.4
20260901045534 66 0.0 0.0 0.00 0.01 0.01 94 1016.3
20260901045025 66 0.0 0.0 0.00 0.01 0.01 94 1016.3
20260901044533 66 0.0 0.0 0.00 0.01 0.01 94 1016.3
20260901044022 67 0.0 0.0 0.00 0.01 0.01 95 1016.3
20260901043530 67 0.0 0.0 0.00 0.01 0.01 94 1016.2
20260901043040 67 0.0 0.0 0.00 0.01 0.01 94 1016.1
20260901042528 67 0.0 0.0 0.00 0.01 0.01 94 1016.1
20260901042041 67 0.0 0.0 0.00 0.01 0.01 93 1016.1
20260901041525 67 0.0 0.0 0.00 0.01 0.01 92 1016.1
20260901041119 68 0.0 0.0 0.00 0.01 0.01 93 1016.1
20260901040524 68 0.0 0.0 0.00 0.01 0.01 93 1016.1
20260901040031 68 0.0 0.0 0.00 0.01 0.01 92 1016.1
20260901035521 68 0.0 0.0 0.00 0.01 0.01 90 1016.1
20260901035029 68 0.0 0.0 0.00 0.01 0.01 90 1016.1
20260901034518 68 0.0 0.0 0.00 0.01 0.01 91 1016.1
20260901034031 68 0.0 0.0 0.00 0.01 0.01 91 1016.0
20260901033535 68 0.0 0.0 0.00 0.01 0.01 91 1016.0
20260901033025 68 0.0 0.0 0.00 0.01 0.01 91 1015.9
20260901032533 68 0.0 0.0 0.00 0.01 0.01 91 1015.9
20260901032022 68 0.0 0.0 0.00 0.01 0.01 91 1015.9
20260901031530 69 0.0 0.0 0.00 0.01 0.01 91 1016.0
20260901031020 69 0.0 0.0 0.00 0.01 0.01 89 1016.0
20260901030629 70 0.0 0.0 0.00 0.01 0.01 90 1015.9
20260901030036 70 0.0 0.0 0.00 0.01 0.01 89 1015.8
20260901025526 70 0.0 0.0 0.00 0.01 0.01 88 1015.7
20260901025059 70 0.0 0.0 0.00 0.01 0.01 87 1015.8
20260901024523 71 0.0 0.0 0.00 0.01 0.01 87 1015.8
20260901024032 71 0.0 0.0 0.00 0.01 0.01 88 1015.8
20260901023521 71 0.0 0.0 0.00 0.01 0.01 86 1015.8
20260901023054 71 0.0 0.0 0.00 0.01 0.01 85 1015.8
20260901022519 72 0.0 0.0 0.00 0.01 0.01 85 1015.7
20260901022027 72 0.0 0.0 0.00 0.01 0.01 85 1015.6
20260901021535 72 0.0 0.0 0.00 0.01 0.01 86 1015.7
20260901021025 73 0.0 0.0 0.00 0.01 0.01 84 1015.7
20260901020534 73 0.0 0.0 0.00 0.01 0.01 81 1015.7
20260901020022 73 0.0 0.0 0.00 0.01 0.01 81 1015.6
20260901015535 74 0.0 0.0 0.00 0.01 0.01 79 1015.6
20260901015020 74 0.0 0.0 0.00 0.01 0.01 80 1015.5
20260901014528 74 0.0 0.0 0.00 0.01 0.01 80 1015.5
20260901014037 75 0.0 0.0 0.00 0.01 0.01 78 1015.4
20260901013527 76 0.0 0.0 0.00 0.01 0.01 79 1015.3
20260901013034 76 0.0 0.0 0.00 0.01 0.01 77 1015.3
20260901012524 77 0.0 0.0 0.00 0.01 0.01 75 1015.2
20260901012031 78 0.0 0.0 0.00 0.01 0.01 72 1015.2
20260901011521 79 0.0 0.0 0.00 0.01 0.01 71 1015.1
20260901011029 79 0.0 0.0 0.00 0.01 0.01 67 1015.2
20260901010519 80 0.0 0.0 0.00 0.01 0.01 66 1015.2
20260901010027 81 0.0 0.0 0.00 0.01 0.01 65 1015.2
20260901005555 81 0.0 0.0 0.00 0.01 0.01 65 1015.2
20260901005025 82 0.0 0.0 0.00 0.01 0.01 64 1015.2
20260901004533 83 0.0 0.0 0.00 0.01 0.01 63 1015.2
20260901004022 83 219 0.9 1.7 0.00 0.01 0.01 63 1015.2
20260901003530 82 222 1.7 1.7 0.00 0.01 0.01 65 1015.2
20260901003021 82 225 1.7 2.6 0.00 0.01 0.01 65 1015.2
20260901002528 84 225 1.7 2.6 0.00 0.01 0.01 62 1015.2
20260901002037 83 225 2.6 2.6 0.00 0.01 0.01 64 1015.2
20260901001526 84 218 2.6 2.6 0.00 0.01 0.01 63 1015.1
20260901001034 84 230 2.6 2.6 0.00 0.01 0.01 63 1015.0
20260901000524 84 222 2.6 3.5 0.00 0.01 0.01 63 1015.0
20260901000052 85 228 2.6 3.5 0.00 0.01 0.01 62 1015.0
20260831235521 86 232 2.6 3.5 0.00 0.01 0.01 62 1014.9
20260831235030 86 227 2.6 3.5 0.00 0.01 0.01 61 1014.9
20260831234519 85 239 2.6 3.5 0.00 0.01 0.01 63 1014.9
20260831234028 86 234 2.6 3.5 0.00 0.01 0.01 61 1014.8
20260831233555 86 230 2.6 3.5 0.00 0.01 0.01 61 1014.8
20260831233024 86 227 2.6 3.5 0.00 0.01 0.01 61 1014.9
20260831232533 86 232 2.6 3.5 0.00 0.01 0.01 61 1014.9
20260831232022 87 238 3.5 4.3 0.00 0.01 0.01 59 1014.9
20260831231531 87 237 2.6 3.5 0.00 0.01 0.01 60 1014.9
20260831231020 88 228 2.6 3.5 0.00 0.01 0.01 59 1014.8
20260831230528 88 236 2.6 3.5 0.00 0.01 0.01 57 1014.9
20260831230056 88 234 3.5 4.3 0.00 0.01 0.01 55 1014.9
20260831225526 88 241 2.6 3.5 0.01 0.01 0.01 55 1014.9
20260831225054 88 220 3.5 4.3 0.01 0.01 0.01 56 1014.9
20260831224524 88 215 3.5 4.3 0.01 0.01 0.01 57 1014.8
20260831224032 88 234 3.5 4.3 0.01 0.01 0.01 57 1014.8
20260831223521 88 228 2.6 3.5 0.01 0.01 0.01 57 1014.9
20260831223029 89 229 2.6 3.5 0.01 0.01 0.01 58 1014.8
20260831222557 88 237 2.6 3.5 0.01 0.01 0.01 58 1014.7
20260831222027 89 244 2.6 3.5 0.01 0.01 0.01 56 1014.6
20260831221535 89 252 1.7 3.5 0.01 0.01 0.01 55 1014.5
20260831221029 88 247 2.6 3.5 0.01 0.01 0.01 58 1014.5
20260831220532 89 239 2.6 4.3 0.01 0.01 0.01 58 1014.5
20260831220022 89 240 2.6 3.5 0.01 0.01 0.01 59 1014.4
20260831215530 89 228 2.6 3.5 0.00 0.00 0.00 57 1014.4
20260831215040 89 238 2.6 3.5 0.00 0.00 0.00 58 1014.3
20260831214527 89 256 1.7 2.6 0.00 0.00 0.00 57 1014.4
20260831214036 89 230 2.6 3.5 0.00 0.00 0.00 55 1014.4
20260831213531 88 6 2.6 3.5 0.00 0.00 0.00 57 1014.4
20260831213038 88 217 2.6 3.5 0.00 0.00 0.00 58 1014.4
20260831212528 89 244 3.5 5.2 0.00 0.00 0.00 56 1014.5
20260831212031 89 228 1.7 4.3 0.00 0.00 0.00 55 1014.5
20260831211526 89 249 2.6 4.3 0.00 0.00 0.00 54 1014.6
20260831211034 88 247 3.5 4.3 0.00 0.00 0.00 56 1014.5
20260831210536 89 307 2.6 4.3 0.00 0.00 0.00 56 1014.5
20260831210026 88 251 2.6 3.5 0.00 0.00 0.00 57 1014.5
20260831205534 88 261 2.6 4.3 0.00 0.00 0.00 57 1014.5
20260831205024 88 234 3.5 4.3 0.00 0.00 0.00 60 1014.5
20260831204532 89 208 2.6 3.5 0.00 0.00 0.00 57 1014.5
20260831204023 88 219 1.7 3.5 0.00 0.00 0.00 59 1014.5
20260831203533 88 256 1.7 3.5 0.00 0.00 0.00 60 1014.5
20260831203020 88 214 1.7 3.5 0.00 0.00 0.00 60 1014.5
20260831202547 87 228 2.6 3.5 0.00 0.00 0.00 59 1014.5
20260831202055 88 227 2.6 5.2 0.00 0.00 0.00 59 1014.5
20260831201545 89 349 2.6 4.3 0.00 0.00 0.00 59 1014.5
20260831201033 88 213 1.7 4.3 0.00 0.00 0.00 59 1014.4
20260831200524 88 24 1.7 3.5 0.00 0.00 0.00 62 1014.4
20260831200052 87 258 2.6 3.5 0.00 0.00 0.00 63 1014.3
20260831195521 87 218 2.6 4.3 0.00 0.00 0.00 61 1014.2
20260831195029 88 234 1.7 4.3 0.00 0.00 0.00 62 1014.2
20260831194537 88 313 2.6 5.2 0.00 0.00 0.00 62 1014.3
20260831194046 88 237 3.5 5.2 0.00 0.00 0.00 61 1014.4
20260831193534 88 251 3.5 5.2 0.00 0.00 0.00 62 1014.4
20260831193045 88 224 2.6 3.5 0.00 0.00 0.00 62 1014.4
20260831192552 88 231 2.6 6.1 0.00 0.00 0.00 61 1014.4
20260831192022 88 241 2.6 5.2 0.00 0.00 0.00 64 1014.4
20260831191530 87 330 1.7 3.5 0.00 0.00 0.00 67 1014.3
20260831191020 87 304 2.6 3.5 0.00 0.00 0.00 68 1014.3
20260831190527 87 351 2.6 3.5 0.00 0.00 0.00 67 1014.3
20260831190042 86 260 2.6 4.3 0.00 0.00 0.00 67 1014.4
20260831185526 86 344 2.6 5.2 0.00 0.00 0.00 69 1014.4
20260831185033 86 230 2.6 4.3 0.00 0.00 0.00 71 1014.4
20260831184523 86 238 4.3 6.1 0.00 0.00 0.00 70 1014.3
20260831184101 85 212 2.6 3.5 0.00 0.00 0.00 71 1014.2
20260831183540 85 243 2.6 6.1 0.00 0.00 0.00 72 1014.2
20260831183029 85 252 2.6 4.3 0.00 0.00 0.00 73 1014.2
20260831182536 85 241 3.5 5.2 0.00 0.00 0.00 73 1014.3
20260831182027 85 264 2.6 4.3 0.00 0.00 0.00 73 1014.4
20260831181534 85 254 2.6 4.3 0.00 0.00 0.00 73 1014.4
20260831181024 85 243 2.6 5.2 0.00 0.00 0.00 74 1014.4
20260831180552 85 236 2.6 5.2 0.00 0.00 0.00 75 1014.4
20260831180021 84 14 1.7 3.5 0.00 0.00 0.00 76 1014.5
20260831175549 84 181 3.5 5.2 0.00 0.00 0.00 75 1014.4
20260831175019 83 216 2.6 4.3 0.00 0.00 0.00 77 1014.4
20260831174526 84 244 3.5 5.2 0.00 0.00 0.00 78 1014.5
20260831174035 83 29 1.7 3.5 0.00 0.00 0.00 80 1014.6